sensor_id;sensor_type;location;lat;lon;timestamp;P1;durP1;ratioP1;P2;durP2;ratioP2
20679;SDS011;10499;47.494;7.608;2023-02-24T00:01:48;0.30;;;0.30;;
20679;SDS011;10499;47.494;7.608;2023-02-24T00:04:16;0.20;;;0.20;;
20679;SDS011;10499;47.494;7.608;2023-02-24T00:06:44;0.30;;;0.30;;
20679;SDS011;10499;47.494;7.608;2023-02-24T00:09:12;0.30;;;0.30;;
20679;SDS011;10499;47.494;7.608;2023-02-24T00:11:44;0.30;;;0.30;;
20679;SDS011;10499;47.494;7.608;2023-02-24T00:14:13;0.30;;;0.30;;
20679;SDS011;10499;47.494;7.608;2023-02-24T00:16:46;0.30;;;0.30;;
20679;SDS011;10499;47.494;7.608;2023-02-24T00:19:13;0.30;;;0.30;;
20679;SDS011;10499;47.494;7.608;2023-02-24T00:21:41;0.30;;;0.30;;
20679;SDS011;10499;47.494;7.608;2023-02-24T00:24:09;0.30;;;0.30;;
20679;SDS011;10499;47.494;7.608;2023-02-24T00:26:35;0.30;;;0.30;;
20679;SDS011;10499;47.494;7.608;2023-02-24T00:29:03;0.30;;;0.30;;
20679;SDS011;10499;47.494;7.608;2023-02-24T00:31:30;0.30;;;0.30;;
20679;SDS011;10499;47.494;7.608;2023-02-24T00:33:57;0.30;;;0.30;;
20679;SDS011;10499;47.494;7.608;2023-02-24T00:36:24;0.30;;;0.30;;
20679;SDS011;10499;47.494;7.608;2023-02-24T00:38:59;0.30;;;0.30;;
20679;SDS011;10499;47.494;7.608;2023-02-24T00:41:27;0.30;;;0.30;;
20679;SDS011;10499;47.494;7.608;2023-02-24T00:43:54;0.30;;;0.30;;
20679;SDS011;10499;47.494;7.608;2023-02-24T00:46:22;0.20;;;0.20;;
20679;SDS011;10499;47.494;7.608;2023-02-24T00:48:50;0.25;;;0.25;;
20679;SDS011;10499;47.494;7.608;2023-02-24T00:51:20;0.30;;;0.30;;
20679;SDS011;10499;47.494;7.608;2023-02-24T00:53:51;0.20;;;0.20;;
20679;SDS011;10499;47.494;7.608;2023-02-24T00:56:20;0.30;;;0.30;;
20679;SDS011;10499;47.494;7.608;2023-02-24T00:58:46;0.20;;;0.20;;
20679;SDS011;10499;47.494;7.608;2023-02-24T01:01:13;0.20;;;0.20;;
20679;SDS011;10499;47.494;7.608;2023-02-24T01:03:41;0.30;;;0.30;;
20679;SDS011;10499;47.494;7.608;2023-02-24T01:06:08;0.20;;;0.20;;
20679;SDS011;10499;47.494;7.608;2023-02-24T01:08:35;0.20;;;0.20;;
20679;SDS011;10499;47.494;7.608;2023-02-24T01:11:04;0.20;;;0.20;;
20679;SDS011;10499;47.494;7.608;2023-02-24T01:13:49;0.20;;;0.20;;
20679;SDS011;10499;47.494;7.608;2023-02-24T01:16:15;0.20;;;0.20;;
20679;SDS011;10499;47.494;7.608;2023-02-24T01:18:45;0.30;;;0.30;;
20679;SDS011;10499;47.494;7.608;2023-02-24T01:21:12;0.20;;;0.20;;
20679;SDS011;10499;47.494;7.608;2023-02-24T01:23:42;0.25;;;0.25;;
20679;SDS011;10499;47.494;7.608;2023-02-24T01:26:09;0.20;;;0.20;;
20679;SDS011;10499;47.494;7.608;2023-02-24T01:28:35;0.20;;;0.20;;
20679;SDS011;10499;47.494;7.608;2023-02-24T01:31:01;0.30;;;0.30;;
20679;SDS011;10499;47.494;7.608;2023-02-24T01:33:29;0.30;;;0.30;;
20679;SDS011;10499;47.494;7.608;2023-02-24T01:36:06;0.30;;;0.30;;
20679;SDS011;10499;47.494;7.608;2023-02-24T01:38:41;0.30;;;0.30;;
20679;SDS011;10499;47.494;7.608;2023-02-24T01:41:10;0.30;;;0.30;;
20679;SDS011;10499;47.494;7.608;2023-02-24T01:46:28;0.20;;;0.20;;
20679;SDS011;10499;47.494;7.608;2023-02-24T01:48:58;0.30;;;0.30;;
20679;SDS011;10499;47.494;7.608;2023-02-24T01:51:33;0.30;;;0.30;;
20679;SDS011;10499;47.494;7.608;2023-02-24T01:54:02;0.30;;;0.30;;
20679;SDS011;10499;47.494;7.608;2023-02-24T01:56:30;0.30;;;0.30;;
20679;SDS011;10499;47.494;7.608;2023-02-24T01:58:57;0.30;;;0.30;;
20679;SDS011;10499;47.494;7.608;2023-02-24T02:01:24;0.30;;;0.30;;
20679;SDS011;10499;47.494;7.608;2023-02-24T02:03:50;0.20;;;0.20;;
20679;SDS011;10499;47.494;7.608;2023-02-24T02:06:22;0.30;;;0.30;;
20679;SDS011;10499;47.494;7.608;2023-02-24T02:08:48;0.30;;;0.30;;
20679;SDS011;10499;47.494;7.608;2023-02-24T02:11:15;0.20;;;0.20;;
20679;SDS011;10499;47.494;7.608;2023-02-24T02:13:47;0.27;;;0.27;;
20679;SDS011;10499;47.494;7.608;2023-02-24T02:22:14;0.20;;;0.20;;
20679;SDS011;10499;47.494;7.608;2023-02-24T02:28:30;0.20;;;0.20;;
20679;SDS011;10499;47.494;7.608;2023-02-24T02:31:33;0.20;;;0.20;;
20679;SDS011;10499;47.494;7.608;2023-02-24T02:51:06;0.20;;;0.20;;
20679;SDS011;10499;47.494;7.608;2023-02-24T02:53:44;0.20;;;0.20;;
20679;SDS011;10499;47.494;7.608;2023-02-24T02:56:16;0.30;;;0.30;;
20679;SDS011;10499;47.494;7.608;2023-02-24T02:58:47;0.20;;;0.20;;
20679;SDS011;10499;47.494;7.608;2023-02-24T03:01:19;0.30;;;0.30;;
20679;SDS011;10499;47.494;7.608;2023-02-24T03:03:51;0.20;;;0.20;;
20679;SDS011;10499;47.494;7.608;2023-02-24T03:06:26;0.20;;;0.20;;
20679;SDS011;10499;47.494;7.608;2023-02-24T03:08:59;0.30;;;0.30;;
20679;SDS011;10499;47.494;7.608;2023-02-24T03:11:53;0.20;;;0.20;;
20679;SDS011;10499;47.494;7.608;2023-02-24T03:14:34;0.20;;;0.20;;
20679;SDS011;10499;47.494;7.608;2023-02-24T03:17:06;0.30;;;0.30;;
20679;SDS011;10499;47.494;7.608;2023-02-24T03:19:36;0.30;;;0.30;;
20679;SDS011;10499;47.494;7.608;2023-02-24T03:22:06;0.30;;;0.30;;
20679;SDS011;10499;47.494;7.608;2023-02-24T03:24:36;0.20;;;0.20;;
20679;SDS011;10499;47.494;7.608;2023-02-24T03:27:15;0.20;;;0.20;;
20679;SDS011;10499;47.494;7.608;2023-02-24T03:30:02;0.20;;;0.20;;
20679;SDS011;10499;47.494;7.608;2023-02-24T03:32:51;0.20;;;0.20;;
20679;SDS011;10499;47.494;7.608;2023-02-24T03:35:26;0.30;;;0.30;;
20679;SDS011;10499;47.494;7.608;2023-02-24T03:37:55;0.30;;;0.30;;
20679;SDS011;10499;47.494;7.608;2023-02-24T03:40:23;0.20;;;0.20;;
20679;SDS011;10499;47.494;7.608;2023-02-24T03:43:08;0.30;;;0.30;;
20679;SDS011;10499;47.494;7.608;2023-02-24T03:45:42;0.30;;;0.30;;
20679;SDS011;10499;47.494;7.608;2023-02-24T03:48:08;0.30;;;0.30;;
20679;SDS011;10499;47.494;7.608;2023-02-24T03:50:39;0.30;;;0.30;;
20679;SDS011;10499;47.494;7.608;2023-02-24T03:53:14;0.30;;;0.30;;
20679;SDS011;10499;47.494;7.608;2023-02-24T03:55:57;0.30;;;0.30;;
20679;SDS011;10499;47.494;7.608;2023-02-24T03:59:04;0.30;;;0.30;;
20679;SDS011;10499;47.494;7.608;2023-02-24T04:01:41;0.30;;;0.30;;
20679;SDS011;10499;47.494;7.608;2023-02-24T04:04:38;0.20;;;0.20;;
20679;SDS011;10499;47.494;7.608;2023-02-24T04:07:34;0.30;;;0.30;;
20679;SDS011;10499;47.494;7.608;2023-02-24T04:12:48;0.30;;;0.30;;
20679;SDS011;10499;47.494;7.608;2023-02-24T04:15:25;0.30;;;0.30;;
20679;SDS011;10499;47.494;7.608;2023-02-24T04:18:10;0.30;;;0.30;;
20679;SDS011;10499;47.494;7.608;2023-02-24T04:20:51;0.30;;;0.30;;
20679;SDS011;10499;47.494;7.608;2023-02-24T04:23:20;0.30;;;0.30;;
20679;SDS011;10499;47.494;7.608;2023-02-24T04:25:51;0.27;;;0.27;;
20679;SDS011;10499;47.494;7.608;2023-02-24T04:28:20;0.30;;;0.30;;
20679;SDS011;10499;47.494;7.608;2023-02-24T04:30:51;0.30;;;0.30;;
20679;SDS011;10499;47.494;7.608;2023-02-24T04:33:21;0.30;;;0.30;;
20679;SDS011;10499;47.494;7.608;2023-02-24T04:35:47;0.30;;;0.30;;
20679;SDS011;10499;47.494;7.608;2023-02-24T04:38:15;0.30;;;0.30;;
20679;SDS011;10499;47.494;7.608;2023-02-24T04:40:41;0.30;;;0.30;;
20679;SDS011;10499;47.494;7.608;2023-02-24T04:43:07;0.30;;;0.30;;
20679;SDS011;10499;47.494;7.608;2023-02-24T04:45:33;0.30;;;0.30;;
20679;SDS011;10499;47.494;7.608;2023-02-24T04:48:00;0.30;;;0.30;;
20679;SDS011;10499;47.494;7.608;2023-02-24T04:50:31;0.30;;;0.30;;
20679;SDS011;10499;47.494;7.608;2023-02-24T04:53:00;0.30;;;0.30;;
20679;SDS011;10499;47.494;7.608;2023-02-24T04:55:31;0.30;;;0.30;;
20679;SDS011;10499;47.494;7.608;2023-02-24T04:58:03;0.27;;;0.27;;
20679;SDS011;10499;47.494;7.608;2023-02-24T05:00:29;0.20;;;0.20;;
20679;SDS011;10499;47.494;7.608;2023-02-24T05:02:59;0.30;;;0.30;;
20679;SDS011;10499;47.494;7.608;2023-02-24T05:05:27;0.30;;;0.30;;
20679;SDS011;10499;47.494;7.608;2023-02-24T05:07:54;0.30;;;0.30;;
20679;SDS011;10499;47.494;7.608;2023-02-24T05:10:21;0.30;;;0.30;;
20679;SDS011;10499;47.494;7.608;2023-02-24T05:12:52;0.30;;;0.30;;
20679;SDS011;10499;47.494;7.608;2023-02-24T05:15:18;0.20;;;0.20;;
20679;SDS011;10499;47.494;7.608;2023-02-24T05:17:44;0.20;;;0.20;;
20679;SDS011;10499;47.494;7.608;2023-02-24T05:20:10;0.30;;;0.30;;
20679;SDS011;10499;47.494;7.608;2023-02-24T05:22:54;0.30;;;0.30;;
20679;SDS011;10499;47.494;7.608;2023-02-24T05:25:20;0.30;;;0.30;;
20679;SDS011;10499;47.494;7.608;2023-02-24T05:27:49;0.20;;;0.20;;
20679;SDS011;10499;47.494;7.608;2023-02-24T05:30:15;0.30;;;0.30;;
20679;SDS011;10499;47.494;7.608;2023-02-24T05:32:42;0.30;;;0.30;;
20679;SDS011;10499;47.494;7.608;2023-02-24T05:35:09;0.30;;;0.30;;
20679;SDS011;10499;47.494;7.608;2023-02-24T05:37:37;0.20;;;0.20;;
20679;SDS011;10499;47.494;7.608;2023-02-24T05:40:06;0.30;;;0.30;;
20679;SDS011;10499;47.494;7.608;2023-02-24T05:42:34;0.27;;;0.27;;
20679;SDS011;10499;47.494;7.608;2023-02-24T05:45:00;0.30;;;0.30;;
20679;SDS011;10499;47.494;7.608;2023-02-24T05:47:26;0.20;;;0.20;;
20679;SDS011;10499;47.494;7.608;2023-02-24T05:49:52;0.20;;;0.20;;
20679;SDS011;10499;47.494;7.608;2023-02-24T05:52:20;0.20;;;0.20;;
20679;SDS011;10499;47.494;7.608;2023-02-24T05:54:47;0.30;;;0.30;;
20679;SDS011;10499;47.494;7.608;2023-02-24T05:57:14;0.30;;;0.30;;
20679;SDS011;10499;47.494;7.608;2023-02-24T05:59:43;0.23;;;0.23;;
20679;SDS011;10499;47.494;7.608;2023-02-24T06:02:10;0.20;;;0.20;;
20679;SDS011;10499;47.494;7.608;2023-02-24T06:04:38;0.20;;;0.20;;
20679;SDS011;10499;47.494;7.608;2023-02-24T06:07:27;0.20;;;0.20;;
20679;SDS011;10499;47.494;7.608;2023-02-24T06:09:58;0.20;;;0.20;;
20679;SDS011;10499;47.494;7.608;2023-02-24T06:14:52;0.30;;;0.30;;
20679;SDS011;10499;47.494;7.608;2023-02-24T06:17:18;0.30;;;0.30;;
20679;SDS011;10499;47.494;7.608;2023-02-24T06:19:45;0.20;;;0.20;;
20679;SDS011;10499;47.494;7.608;2023-02-24T06:22:13;0.20;;;0.20;;
20679;SDS011;10499;47.494;7.608;2023-02-24T06:24:41;0.30;;;0.30;;
20679;SDS011;10499;47.494;7.608;2023-02-24T06:27:13;0.30;;;0.30;;
20679;SDS011;10499;47.494;7.608;2023-02-24T06:29:47;0.30;;;0.30;;
20679;SDS011;10499;47.494;7.608;2023-02-24T06:32:15;0.30;;;0.30;;
20679;SDS011;10499;47.494;7.608;2023-02-24T06:34:47;0.30;;;0.30;;
20679;SDS011;10499;47.494;7.608;2023-02-24T06:37:15;0.30;;;0.30;;
20679;SDS011;10499;47.494;7.608;2023-02-24T06:39:42;0.30;;;0.30;;
20679;SDS011;10499;47.494;7.608;2023-02-24T06:42:08;0.30;;;0.30;;
20679;SDS011;10499;47.494;7.608;2023-02-24T06:44:37;0.30;;;0.30;;
20679;SDS011;10499;47.494;7.608;2023-02-24T06:47:04;0.30;;;0.30;;
20679;SDS011;10499;47.494;7.608;2023-02-24T06:49:31;0.30;;;0.30;;
20679;SDS011;10499;47.494;7.608;2023-02-24T06:51:58;0.30;;;0.30;;
20679;SDS011;10499;47.494;7.608;2023-02-24T06:54:24;0.30;;;0.30;;
20679;SDS011;10499;47.494;7.608;2023-02-24T06:56:53;0.30;;;0.30;;
20679;SDS011;10499;47.494;7.608;2023-02-24T06:59:18;0.30;;;0.30;;
20679;SDS011;10499;47.494;7.608;2023-02-24T07:01:52;0.30;;;0.30;;
20679;SDS011;10499;47.494;7.608;2023-02-24T07:04:19;0.30;;;0.30;;
20679;SDS011;10499;47.494;7.608;2023-02-24T07:06:49;0.30;;;0.30;;
20679;SDS011;10499;47.494;7.608;2023-02-24T07:09:18;0.30;;;0.30;;
20679;SDS011;10499;47.494;7.608;2023-02-24T07:11:45;0.30;;;0.30;;
20679;SDS011;10499;47.494;7.608;2023-02-24T07:14:16;0.30;;;0.30;;
20679;SDS011;10499;47.494;7.608;2023-02-24T07:16:43;0.30;;;0.30;;
20679;SDS011;10499;47.494;7.608;2023-02-24T07:19:10;0.30;;;0.30;;
20679;SDS011;10499;47.494;7.608;2023-02-24T07:21:38;0.30;;;0.30;;
20679;SDS011;10499;47.494;7.608;2023-02-24T07:24:14;0.30;;;0.30;;
20679;SDS011;10499;47.494;7.608;2023-02-24T07:26:53;0.30;;;0.30;;
20679;SDS011;10499;47.494;7.608;2023-02-24T07:29:24;0.30;;;0.30;;
20679;SDS011;10499;47.494;7.608;2023-02-24T07:31:53;0.20;;;0.20;;
20679;SDS011;10499;47.494;7.608;2023-02-24T07:34:22;0.20;;;0.20;;
20679;SDS011;10499;47.494;7.608;2023-02-24T07:36:50;0.30;;;0.30;;
20679;SDS011;10499;47.494;7.608;2023-02-24T07:39:16;0.30;;;0.30;;
20679;SDS011;10499;47.494;7.608;2023-02-24T07:41:43;0.30;;;0.30;;
20679;SDS011;10499;47.494;7.608;2023-02-24T07:44:13;0.20;;;0.20;;
20679;SDS011;10499;47.494;7.608;2023-02-24T07:46:40;0.20;;;0.20;;
20679;SDS011;10499;47.494;7.608;2023-02-24T07:49:07;0.30;;;0.30;;
20679;SDS011;10499;47.494;7.608;2023-02-24T07:51:40;0.30;;;0.30;;
20679;SDS011;10499;47.494;7.608;2023-02-24T07:54:06;0.20;;;0.20;;
20679;SDS011;10499;47.494;7.608;2023-02-24T07:56:35;0.30;;;0.30;;
20679;SDS011;10499;47.494;7.608;2023-02-24T07:59:10;0.30;;;0.30;;
20679;SDS011;10499;47.494;7.608;2023-02-24T08:01:40;0.20;;;0.20;;
20679;SDS011;10499;47.494;7.608;2023-02-24T08:04:14;0.20;;;0.20;;
20679;SDS011;10499;47.494;7.608;2023-02-24T08:06:43;0.30;;;0.30;;
20679;SDS011;10499;47.494;7.608;2023-02-24T08:09:11;0.30;;;0.30;;
20679;SDS011;10499;47.494;7.608;2023-02-24T08:11:48;0.30;;;0.30;;
20679;SDS011;10499;47.494;7.608;2023-02-24T08:14:19;0.20;;;0.20;;
20679;SDS011;10499;47.494;7.608;2023-02-24T08:16:48;0.30;;;0.30;;
20679;SDS011;10499;47.494;7.608;2023-02-24T08:19:17;0.30;;;0.30;;
20679;SDS011;10499;47.494;7.608;2023-02-24T08:21:46;0.30;;;0.30;;
20679;SDS011;10499;47.494;7.608;2023-02-24T08:24:15;0.20;;;0.20;;
20679;SDS011;10499;47.494;7.608;2023-02-24T08:26:44;0.20;;;0.20;;
20679;SDS011;10499;47.494;7.608;2023-02-24T08:29:17;0.20;;;0.20;;
20679;SDS011;10499;47.494;7.608;2023-02-24T08:31:44;0.10;;;0.10;;
20679;SDS011;10499;47.494;7.608;2023-02-24T08:34:11;0.10;;;0.10;;
20679;SDS011;10499;47.494;7.608;2023-02-24T08:36:40;0.17;;;0.17;;
20679;SDS011;10499;47.494;7.608;2023-02-24T08:39:12;0.10;;;0.10;;
20679;SDS011;10499;47.494;7.608;2023-02-24T08:41:38;0.10;;;0.10;;
20679;SDS011;10499;47.494;7.608;2023-02-24T08:44:15;0.10;;;0.10;;
20679;SDS011;10499;47.494;7.608;2023-02-24T08:46:43;0.10;;;0.10;;
20679;SDS011;10499;47.494;7.608;2023-02-24T08:49:09;0.10;;;0.10;;
20679;SDS011;10499;47.494;7.608;2023-02-24T08:51:37;0.10;;;0.10;;
20679;SDS011;10499;47.494;7.608;2023-02-24T08:54:10;0.10;;;0.10;;
20679;SDS011;10499;47.494;7.608;2023-02-24T08:56:39;0.10;;;0.10;;
20679;SDS011;10499;47.494;7.608;2023-02-24T08:59:13;0.10;;;0.10;;
20679;SDS011;10499;47.494;7.608;2023-02-24T09:01:59;0.10;;;0.10;;
20679;SDS011;10499;47.494;7.608;2023-02-24T09:04:49;0.10;;;0.10;;
20679;SDS011;10499;47.494;7.608;2023-02-24T09:07:27;0.10;;;0.10;;
20679;SDS011;10499;47.494;7.608;2023-02-24T09:10:00;0.10;;;0.10;;
20679;SDS011;10499;47.494;7.608;2023-02-24T09:12:35;0.10;;;0.10;;
20679;SDS011;10499;47.494;7.608;2023-02-24T09:15:05;0.10;;;0.10;;
20679;SDS011;10499;47.494;7.608;2023-02-24T09:17:32;0.10;;;0.10;;
20679;SDS011;10499;47.494;7.608;2023-02-24T09:20:05;0.10;;;0.10;;
20679;SDS011;10499;47.494;7.608;2023-02-24T09:22:54;0.10;;;0.10;;
20679;SDS011;10499;47.494;7.608;2023-02-24T09:25:25;0.10;;;0.10;;
20679;SDS011;10499;47.494;7.608;2023-02-24T09:28:14;0.10;;;0.10;;
20679;SDS011;10499;47.494;7.608;2023-02-24T09:30:43;0.10;;;0.10;;
20679;SDS011;10499;47.494;7.608;2023-02-24T09:33:31;0.10;;;0.10;;
20679;SDS011;10499;47.494;7.608;2023-02-24T09:38:46;0.10;;;0.10;;
20679;SDS011;10499;47.494;7.608;2023-02-24T09:44:19;0.10;;;0.10;;
20679;SDS011;10499;47.494;7.608;2023-02-24T09:46:55;0.10;;;0.10;;
20679;SDS011;10499;47.494;7.608;2023-02-24T09:49:34;0.10;;;0.10;;
20679;SDS011;10499;47.494;7.608;2023-02-24T09:52:11;0.10;;;0.10;;
20679;SDS011;10499;47.494;7.608;2023-02-24T09:54:46;0.10;;;0.10;;
20679;SDS011;10499;47.494;7.608;2023-02-24T09:57:32;0.10;;;0.10;;
20679;SDS011;10499;47.494;7.608;2023-02-24T10:00:28;0.10;;;0.10;;
20679;SDS011;10499;47.494;7.608;2023-02-24T10:08:02;0.10;;;0.10;;
20679;SDS011;10499;47.494;7.608;2023-02-24T10:10:37;0.10;;;0.10;;
20679;SDS011;10499;47.494;7.608;2023-02-24T10:13:24;0.10;;;0.10;;
20679;SDS011;10499;47.494;7.608;2023-02-24T10:15:57;0.10;;;0.10;;
20679;SDS011;10499;47.494;7.608;2023-02-24T10:21:05;0.10;;;0.10;;
20679;SDS011;10499;47.494;7.608;2023-02-24T10:23:58;0.10;;;0.10;;
20679;SDS011;10499;47.494;7.608;2023-02-24T10:26:51;0.10;;;0.10;;
20679;SDS011;10499;47.494;7.608;2023-02-24T10:29:21;0.10;;;0.10;;
20679;SDS011;10499;47.494;7.608;2023-02-24T10:32:06;0.10;;;0.10;;
20679;SDS011;10499;47.494;7.608;2023-02-24T10:34:47;0.10;;;0.10;;
20679;SDS011;10499;47.494;7.608;2023-02-24T10:37:15;0.10;;;0.10;;
20679;SDS011;10499;47.494;7.608;2023-02-24T10:39:43;0.10;;;0.10;;
20679;SDS011;10499;47.494;7.608;2023-02-24T10:42:35;0.10;;;0.10;;
20679;SDS011;10499;47.494;7.608;2023-02-24T10:45:09;0.10;;;0.10;;
20679;SDS011;10499;47.494;7.608;2023-02-24T10:47:41;0.10;;;0.10;;
20679;SDS011;10499;47.494;7.608;2023-02-24T10:50:20;0.10;;;0.10;;
20679;SDS011;10499;47.494;7.608;2023-02-24T10:53:16;0.10;;;0.10;;
20679;SDS011;10499;47.494;7.608;2023-02-24T10:55:52;0.00;;;0.00;;
20679;SDS011;10499;47.494;7.608;2023-02-24T10:58:58;0.00;;;0.00;;
20679;SDS011;10499;47.494;7.608;2023-02-24T11:01:44;0.00;;;0.00;;
20679;SDS011;10499;47.494;7.608;2023-02-24T11:04:43;0.10;;;0.10;;
20679;SDS011;10499;47.494;7.608;2023-02-24T11:07:20;0.10;;;0.10;;
20679;SDS011;10499;47.494;7.608;2023-02-24T11:10:11;0.00;;;0.00;;
20679;SDS011;10499;47.494;7.608;2023-02-24T11:12:49;0.08;;;0.08;;
20679;SDS011;10499;47.494;7.608;2023-02-24T11:15:37;0.00;;;0.00;;
20679;SDS011;10499;47.494;7.608;2023-02-24T11:18:27;0.10;;;0.10;;
20679;SDS011;10499;47.494;7.608;2023-02-24T11:20:55;0.10;;;0.10;;
20679;SDS011;10499;47.494;7.608;2023-02-24T11:26:00;0.10;;;0.10;;
20679;SDS011;10499;47.494;7.608;2023-02-24T11:33:56;0.10;;;0.10;;
20679;SDS011;10499;47.494;7.608;2023-02-24T11:36:30;0.00;;;0.00;;
20679;SDS011;10499;47.494;7.608;2023-02-24T11:42:12;0.00;;;0.00;;
20679;SDS011;10499;47.494;7.608;2023-02-24T11:47:29;0.10;;;0.10;;
20679;SDS011;10499;47.494;7.608;2023-02-24T11:52:47;0.00;;;0.00;;
20679;SDS011;10499;47.494;7.608;2023-02-24T11:55:23;0.00;;;0.00;;
20679;SDS011;10499;47.494;7.608;2023-02-24T11:57:58;0.00;;;0.00;;
20679;SDS011;10499;47.494;7.608;2023-02-24T12:00:27;0.10;;;0.10;;
20679;SDS011;10499;47.494;7.608;2023-02-24T12:03:00;0.00;;;0.00;;
20679;SDS011;10499;47.494;7.608;2023-02-24T12:05:43;0.10;;;0.10;;
20679;SDS011;10499;47.494;7.608;2023-02-24T12:16:41;0.10;;;0.10;;
20679;SDS011;10499;47.494;7.608;2023-02-24T12:21:45;0.10;;;0.10;;
20679;SDS011;10499;47.494;7.608;2023-02-24T12:29:55;0.10;;;0.10;;
20679;SDS011;10499;47.494;7.608;2023-02-24T12:38:20;0.10;;;0.10;;
20679;SDS011;10499;47.494;7.608;2023-02-24T12:46:55;0.10;;;0.10;;
20679;SDS011;10499;47.494;7.608;2023-02-24T12:50:12;0.00;;;0.00;;
20679;SDS011;10499;47.494;7.608;2023-02-24T12:55:54;0.00;;;0.00;;
20679;SDS011;10499;47.494;7.608;2023-02-24T12:58:25;0.10;;;0.10;;
20679;SDS011;10499;47.494;7.608;2023-02-24T13:04:03;0.10;;;0.10;;
20679;SDS011;10499;47.494;7.608;2023-02-24T13:12:10;0.08;;;0.08;;
20679;SDS011;10499;47.494;7.608;2023-02-24T13:14:56;0.10;;;0.10;;
20679;SDS011;10499;47.494;7.608;2023-02-24T13:17:23;0.10;;;0.10;;
20679;SDS011;10499;47.494;7.608;2023-02-24T13:19:51;0.10;;;0.10;;
20679;SDS011;10499;47.494;7.608;2023-02-24T13:22:19;0.00;;;0.00;;
20679;SDS011;10499;47.494;7.608;2023-02-24T13:27:23;0.10;;;0.10;;
20679;SDS011;10499;47.494;7.608;2023-02-24T13:30:03;0.10;;;0.10;;
20679;SDS011;10499;47.494;7.608;2023-02-24T13:32:32;0.00;;;0.00;;
20679;SDS011;10499;47.494;7.608;2023-02-24T13:37:42;0.00;;;0.00;;
20679;SDS011;10499;47.494;7.608;2023-02-24T13:40:23;0.10;;;0.10;;
20679;SDS011;10499;47.494;7.608;2023-02-24T13:45:30;0.10;;;0.10;;
20679;SDS011;10499;47.494;7.608;2023-02-24T14:01:58;0.10;;;0.10;;
20679;SDS011;10499;47.494;7.608;2023-02-24T14:04:35;0.10;;;0.10;;
20679;SDS011;10499;47.494;7.608;2023-02-24T14:07:08;0.10;;;0.10;;
20679;SDS011;10499;47.494;7.608;2023-02-24T14:09:36;0.10;;;0.10;;
20679;SDS011;10499;47.494;7.608;2023-02-24T14:12:11;0.10;;;0.10;;
20679;SDS011;10499;47.494;7.608;2023-02-24T14:14:45;0.10;;;0.10;;
20679;SDS011;10499;47.494;7.608;2023-02-24T14:17:19;0.10;;;0.10;;
20679;SDS011;10499;47.494;7.608;2023-02-24T14:19:49;0.10;;;0.10;;
20679;SDS011;10499;47.494;7.608;2023-02-24T14:22:18;0.10;;;0.10;;
20679;SDS011;10499;47.494;7.608;2023-02-24T14:24:45;0.10;;;0.10;;
20679;SDS011;10499;47.494;7.608;2023-02-24T14:27:24;0.10;;;0.10;;
20679;SDS011;10499;47.494;7.608;2023-02-24T14:29:51;0.10;;;0.10;;
20679;SDS011;10499;47.494;7.608;2023-02-24T14:32:18;0.10;;;0.10;;
20679;SDS011;10499;47.494;7.608;2023-02-24T14:34:45;0.10;;;0.10;;
20679;SDS011;10499;47.494;7.608;2023-02-24T14:37:12;0.10;;;0.10;;
20679;SDS011;10499;47.494;7.608;2023-02-24T14:39:47;0.10;;;0.10;;
20679;SDS011;10499;47.494;7.608;2023-02-24T14:42:16;0.10;;;0.10;;
20679;SDS011;10499;47.494;7.608;2023-02-24T14:44:50;0.10;;;0.10;;
20679;SDS011;10499;47.494;7.608;2023-02-24T14:47:22;0.10;;;0.10;;
20679;SDS011;10499;47.494;7.608;2023-02-24T14:50:00;0.10;;;0.10;;
20679;SDS011;10499;47.494;7.608;2023-02-24T14:52:33;0.10;;;0.10;;
20679;SDS011;10499;47.494;7.608;2023-02-24T14:55:04;0.10;;;0.10;;
20679;SDS011;10499;47.494;7.608;2023-02-24T14:57:57;0.10;;;0.10;;
20679;SDS011;10499;47.494;7.608;2023-02-24T15:00:40;0.10;;;0.10;;
20679;SDS011;10499;47.494;7.608;2023-02-24T15:03:22;0.10;;;0.10;;
20679;SDS011;10499;47.494;7.608;2023-02-24T15:05:53;0.10;;;0.10;;
20679;SDS011;10499;47.494;7.608;2023-02-24T15:08:29;0.10;;;0.10;;
20679;SDS011;10499;47.494;7.608;2023-02-24T15:11:03;0.10;;;0.10;;
20679;SDS011;10499;47.494;7.608;2023-02-24T15:13:41;0.10;;;0.10;;
20679;SDS011;10499;47.494;7.608;2023-02-24T15:16:15;0.10;;;0.10;;
20679;SDS011;10499;47.494;7.608;2023-02-24T15:18:52;0.15;;;0.15;;
20679;SDS011;10499;47.494;7.608;2023-02-24T15:21:21;0.10;;;0.10;;
20679;SDS011;10499;47.494;7.608;2023-02-24T15:24:02;0.10;;;0.10;;
20679;SDS011;10499;47.494;7.608;2023-02-24T15:26:37;0.17;;;0.17;;
20679;SDS011;10499;47.494;7.608;2023-02-24T15:29:13;0.20;;;0.20;;
20679;SDS011;10499;47.494;7.608;2023-02-24T15:31:47;0.10;;;0.10;;
20679;SDS011;10499;47.494;7.608;2023-02-24T15:34:17;0.20;;;0.20;;
20679;SDS011;10499;47.494;7.608;2023-02-24T15:36:45;0.10;;;0.10;;
20679;SDS011;10499;47.494;7.608;2023-02-24T15:39:19;0.20;;;0.20;;
20679;SDS011;10499;47.494;7.608;2023-02-24T15:41:48;0.15;;;0.15;;
20679;SDS011;10499;47.494;7.608;2023-02-24T15:44:28;0.10;;;0.10;;
20679;SDS011;10499;47.494;7.608;2023-02-24T15:46:56;0.20;;;0.20;;
20679;SDS011;10499;47.494;7.608;2023-02-24T15:49:23;0.20;;;0.20;;
20679;SDS011;10499;47.494;7.608;2023-02-24T15:51:49;0.20;;;0.20;;
20679;SDS011;10499;47.494;7.608;2023-02-24T15:54:18;0.20;;;0.20;;
20679;SDS011;10499;47.494;7.608;2023-02-24T15:56:51;0.20;;;0.20;;
20679;SDS011;10499;47.494;7.608;2023-02-24T15:59:18;0.20;;;0.20;;
20679;SDS011;10499;47.494;7.608;2023-02-24T16:01:46;0.20;;;0.20;;
20679;SDS011;10499;47.494;7.608;2023-02-24T16:04:12;0.20;;;0.20;;
20679;SDS011;10499;47.494;7.608;2023-02-24T16:06:38;0.20;;;0.20;;
20679;SDS011;10499;47.494;7.608;2023-02-24T16:09:11;0.20;;;0.20;;
20679;SDS011;10499;47.494;7.608;2023-02-24T16:11:39;0.10;;;0.10;;
20679;SDS011;10499;47.494;7.608;2023-02-24T16:14:08;0.17;;;0.17;;
20679;SDS011;10499;47.494;7.608;2023-02-24T16:16:39;0.20;;;0.20;;
20679;SDS011;10499;47.494;7.608;2023-02-24T16:19:05;0.10;;;0.10;;
20679;SDS011;10499;47.494;7.608;2023-02-24T16:21:32;0.20;;;0.20;;
20679;SDS011;10499;47.494;7.608;2023-02-24T16:23:57;0.20;;;0.20;;
20679;SDS011;10499;47.494;7.608;2023-02-24T16:26:23;0.20;;;0.20;;
20679;SDS011;10499;47.494;7.608;2023-02-24T16:28:53;0.20;;;0.20;;
20679;SDS011;10499;47.494;7.608;2023-02-24T16:31:21;0.20;;;0.20;;
20679;SDS011;10499;47.494;7.608;2023-02-24T16:33:48;0.20;;;0.20;;
20679;SDS011;10499;47.494;7.608;2023-02-24T16:36:14;0.20;;;0.20;;
20679;SDS011;10499;47.494;7.608;2023-02-24T16:38:41;0.20;;;0.20;;
20679;SDS011;10499;47.494;7.608;2023-02-24T16:41:12;0.20;;;0.20;;
20679;SDS011;10499;47.494;7.608;2023-02-24T16:43:38;0.20;;;0.20;;
20679;SDS011;10499;47.494;7.608;2023-02-24T16:46:05;0.20;;;0.20;;
20679;SDS011;10499;47.494;7.608;2023-02-24T16:48:36;0.20;;;0.20;;
20679;SDS011;10499;47.494;7.608;2023-02-24T16:51:04;0.20;;;0.20;;
20679;SDS011;10499;47.494;7.608;2023-02-24T16:53:32;0.20;;;0.20;;
20679;SDS011;10499;47.494;7.608;2023-02-24T16:55:58;0.20;;;0.20;;
20679;SDS011;10499;47.494;7.608;2023-02-24T16:58:24;0.20;;;0.20;;
20679;SDS011;10499;47.494;7.608;2023-02-24T17:00:50;0.20;;;0.20;;
20679;SDS011;10499;47.494;7.608;2023-02-24T17:05:45;0.20;;;0.20;;
20679;SDS011;10499;47.494;7.608;2023-02-24T17:08:12;0.20;;;0.20;;
20679;SDS011;10499;47.494;7.608;2023-02-24T17:10:38;0.20;;;0.20;;
20679;SDS011;10499;47.494;7.608;2023-02-24T17:13:04;0.20;;;0.20;;
20679;SDS011;10499;47.494;7.608;2023-02-24T17:15:30;0.20;;;0.20;;
20679;SDS011;10499;47.494;7.608;2023-02-24T17:17:56;0.20;;;0.20;;
20679;SDS011;10499;47.494;7.608;2023-02-24T17:20:22;0.20;;;0.20;;
20679;SDS011;10499;47.494;7.608;2023-02-24T17:22:48;0.20;;;0.20;;
20679;SDS011;10499;47.494;7.608;2023-02-24T17:25:14;0.20;;;0.20;;
20679;SDS011;10499;47.494;7.608;2023-02-24T17:27:41;0.20;;;0.20;;